Time;durP1;ratioP1;P1;durP2;ratioP2;P2;SDS_P1;SDS_P2;PMS_P1;PMS_P2;Temp;Humidity;BMP_temperature;BMP_pressure;BME280_temperature;BME280_humidity;BME280_pressure;Samples;Min_cycle;Max_cycle;Signal;HPM_P1;HPM_P2
2022/10/19 09:35:08;;;;;;;27.73;17.37;;;;;;;13.97;100.00;99927.34;5165540;27;20552;-80
2022/10/19 09:37:43;;;;;;;23.80;15.33;;;;;;;14.32;100.00;99919.06;5149631;27;39974;-80
2022/10/19 09:40:17;;;;;;;25.47;16.43;;;;;;;14.82;100.00;99928.44;5148783;27;42312;-81
2022/10/19 09:42:44;;;;;;;22.80;15.23;;;;;;;15.09;96.36;99906.19;5153518;27;42765;-80
2022/10/19 09:45:17;;;;;;;26.77;16.77;;;;;;;15.38;92.81;99914.97;5140822;27;42623;-81
2022/10/19 09:47:48;;;;;;;24.23;15.33;;;;;;;15.49;90.39;99902.75;5158414;27;39366;-82
2022/10/19 09:50:20;;;;;;;19.37;14.00;;;;;;;15.72;90.12;99910.09;5160085;27;41913;-80
2022/10/19 09:52:49;;;;;;;20.20;12.80;;;;;;;15.77;88.91;99905.31;5161534;27;41588;-82
2022/10/19 09:55:37;;;;;;;20.53;12.93;;;;;;;15.92;87.60;99927.50;5167858;27;42737;-82
2022/10/19 09:58:16;;;;;;;26.67;14.70;;;;;;;15.82;85.89;99905.88;5163194;27;39972;-82
2022/10/19 10:00:46;;;;;;;17.73;11.93;;;;;;;16.05;86.23;99923.88;5162620;27;40561;-80
2022/10/19 10:03:29;;;;;;;19.63;12.73;;;;;;;16.14;85.45;99925.06;5162481;27;43582;-80
2022/10/19 10:06:02;;;;;;;18.07;12.67;;;;;;;16.16;85.17;99907.97;5161180;27;43378;-80
2022/10/19 10:08:33;;;;;;;18.20;11.73;;;;;;;16.27;84.89;99907.22;5160725;27;40668;-81
2022/10/19 10:11:07;;;;;;;14.00;10.03;;;;;;;16.40;83.87;99912.56;5156651;27;43152;-83
2022/10/19 10:13:40;;;;;;;10.43;8.60;;;;;;;16.45;83.86;99905.06;5148344;27;42223;-81
2022/10/19 10:16:10;;;;;;;11.10;8.30;;;;;;;16.62;82.81;99918.16;5130509;27;40970;-79
2022/10/19 10:18:50;;;;;;;10.33;7.93;;;;;;;16.77;82.56;99902.84;5131167;27;38641;-83
2022/10/19 10:21:23;;;;;;;9.03;7.07;;;;;;;16.86;81.75;99887.00;5130422;27;41823;-82
2022/10/19 10:24:01;;;;;;;10.60;7.90;;;;;;;16.92;80.46;99882.16;5148674;27;42624;-81
2022/10/19 10:26:28;;;;;;;9.27;7.93;;;;;;;16.98;80.14;99887.06;5106785;28;41501;-82
2022/10/19 10:28:56;;;;;;;8.33;6.93;;;;;;;17.01;80.46;99884.19;5107109;28;39963;-80
2022/10/19 10:31:26;;;;;;;8.80;7.67;;;;;;;17.16;79.87;99897.31;5147580;27;43321;-84
2022/10/19 10:34:00;;;;;;;9.93;7.53;;;;;;;17.14;78.64;99883.16;5148610;27;42801;-86
2022/10/19 10:36:32;;;;;;;9.13;6.97;;;;;;;17.27;78.45;99896.50;5131106;27;41282;-86
2022/10/19 10:39:05;;;;;;;8.17;7.10;;;;;;;17.32;78.10;99886.28;5148268;27;39596;-86
2022/10/19 10:41:38;;;;;;;6.83;6.13;;;;;;;17.46;77.59;99891.50;5145008;27;42486;-84
2022/10/19 10:44:14;;;;;;;7.03;6.33;;;;;;;17.40;76.71;99881.25;5129909;27;42017;-85
2022/10/19 10:46:51;;;;;;;10.73;7.37;;;;;;;17.35;76.38;99886.09;5117027;27;41270;-82
2022/10/19 10:49:23;;;;;;;7.13;6.10;;;;;;;17.38;76.68;99896.56;5116293;27;38988;-81
2022/10/19 10:51:55;;;;;;;6.90;5.53;;;;;;;17.40;77.02;99894.66;5135317;27;40837;-80
2022/10/19 10:54:24;;;;;;;7.93;6.97;;;;;;;17.40;76.38;99886.59;5115954;27;41682;-81
2022/10/19 10:57:03;;;;;;;8.13;7.10;;;;;;;17.32;76.10;99874.72;5117081;27;41158;-79
2022/10/19 10:59:37;;;;;;;8.13;6.43;;;;;;;17.35;76.35;99870.00;5117109;27;40388;-84
2022/10/19 11:02:18;;;;;;;7.87;6.60;;;;;;;17.47;76.56;99879.81;5117060;27;40982;-79
2022/10/19 11:04:56;;;;;;;7.03;6.07;;;;;;;17.51;76.85;99875.94;5133124;27;43150;-78
2022/10/19 11:07:28;;;;;;;7.47;6.03;;;;;;;17.49;76.02;99877.88;5131799;27;43216;-81
2022/10/19 11:09:58;;;;;;;6.83;5.97;;;;;;;17.51;75.57;99880.44;5115422;27;39143;-79
2022/10/19 11:12:36;;;;;;;7.60;6.30;;;;;;;17.53;75.62;99881.19;5134732;27;42713;-82
2022/10/19 11:15:11;;;;;;;6.50;5.80;;;;;;;17.50;75.14;99873.38;5116278;27;41556;-82
2022/10/19 11:17:47;;;;;;;7.73;5.97;;;;;;;17.46;74.93;99875.41;5117383;27;42063;-83
2022/10/19 11:20:15;;;;;;;9.37;6.83;;;;;;;17.28;74.98;99842.00;5133600;27;41197;-81
2022/10/19 11:22:50;;;;;;;7.13;5.57;;;;;;;17.49;74.83;99855.59;5117972;27;41685;-89
2022/10/19 11:25:26;;;;;;;6.60;5.50;;;;;;;17.62;74.50;99871.59;5134248;27;42053;-80
2022/10/19 11:28:04;;;;;;;6.27;5.70;;;;;;;17.49;74.60;99850.25;5117243;27;41136;-86
2022/10/19 11:30:37;;;;;;;8.47;6.53;;;;;;;17.54;73.69;99858.81;5132051;27;39994;-84
2022/10/19 11:33:07;;;;;;;6.83;5.70;;;;;;;17.55;73.84;99866.72;5133357;27;40853;-84
2022/10/19 11:35:45;;;;;;;6.33;5.73;;;;;;;17.57;74.59;99864.75;5117080;27;41825;-84
2022/10/19 11:38:35;;;;;;;5.70;5.10;;;;;;;17.59;74.94;99856.59;5131743;27;41844;-81
2022/10/19 11:41:17;;;;;;;6.03;5.40;;;;;;;17.63;74.84;99849.22;5116955;27;40053;-91
2022/10/19 11:43:57;;;;;;;6.20;5.60;;;;;;;17.66;74.68;99851.69;5131876;27;41922;-88
2022/10/19 11:46:32;;;;;;;11.40;8.03;;;;;;;17.47;73.72;99828.94;5133814;27;42223;-86
2022/10/19 11:49:21;;;;;;;6.83;5.90;;;;;;;17.58;73.68;99847.72;5133073;27;43706;-81
2022/10/19 11:51:56;;;;;;;6.97;6.27;;;;;;;17.35;73.79;99811.09;5116094;27;40172;-84
2022/10/19 11:54:37;;;;;;;6.13;5.17;;;;;;;17.40;74.02;99810.78;5115590;27;42667;-81
2022/10/19 11:57:13;;;;;;;6.67;5.50;;;;;;;17.64;73.83;99842.91;5130376;27;43749;-80
2022/10/19 11:59:56;;;;;;;7.60;5.77;;;;;;;17.56;73.70;99824.69;5115903;27;41080;-85
2022/10/19 12:02:44;;;;;;;6.30;5.70;;;;;;;17.63;73.92;99823.31;5133717;27;38859;-82
2022/10/19 12:05:17;;;;;;;6.27;5.40;;;;;;;17.58;74.17;99815.56;5115835;27;40313;-84
2022/10/19 12:07:58;;;;;;;6.47;5.47;;;;;;;17.58;73.83;99812.91;5130746;27;42817;-86
2022/10/19 12:10:34;;;;;;;7.97;6.30;;;;;;;17.61;74.01;99822.53;5115966;27;40844;-85
2022/10/19 12:13:04;;;;;;;6.90;6.13;;;;;;;17.49;74.00;99805.56;5130288;27;40352;-80
2022/10/19 12:15:35;;;;;;;7.07;6.10;;;;;;;17.58;73.20;99822.75;5115430;27;41912;-81
2022/10/19 12:18:11;;;;;;;5.87;5.27;;;;;;;17.41;73.72;99786.56;5116679;27;43085;-82
2022/10/19 12:20:46;;;;;;;6.30;5.70;;;;;;;17.52;73.21;99805.34;5115864;27;41036;-86
2022/10/19 12:23:27;;;;;;;7.67;5.97;;;;;;;17.53;73.51;99799.00;5116603;27;38668;-85
2022/10/19 12:25:59;;;;;;;7.30;6.00;;;;;;;17.57;73.92;99800.47;5132156;27;41996;-83
2022/10/19 12:28:30;;;;;;;8.47;6.87;;;;;;;17.50;73.32;99799.25;5116343;27;41757;-87
2022/10/19 12:30:59;;;;;;;6.50;5.27;;;;;;;17.47;73.76;99798.59;5132304;27;42298;-82
2022/10/19 12:33:35;;;;;;;9.27;6.73;;;;;;;17.47;74.05;99796.78;5115395;27;39755;-84
2022/10/19 12:36:12;;;;;;;7.73;6.93;;;;;;;17.52;74.35;99786.59;5115389;27;40365;-84
2022/10/19 12:38:51;;;;;;;7.43;6.27;;;;;;;17.56;73.78;99771.13;5130401;27;43040;-85
2022/10/19 12:41:29;;;;;;;6.80;6.10;;;;;;;17.70;73.30;99787.03;5132252;27;40975;-82
2022/10/19 12:44:09;;;;;;;7.30;6.27;;;;;;;17.77;73.15;99790.09;5131274;27;39781;-86
2022/10/19 12:46:41;;;;;;;5.83;5.23;;;;;;;17.72;73.33;99776.19;5074784;28;41867;-82
2022/10/19 12:49:37;;;;;;;7.67;6.90;;;;;;;17.75;72.85;99784.00;5092285;27;43333;-84
2022/10/19 12:52:07;;;;;;;6.90;6.00;;;;;;;17.65;72.77;99774.97;5115636;27;41316;-82
2022/10/19 12:54:39;;;;;;;6.43;5.77;;;;;;;17.67;72.95;99778.38;5115421;27;40327;-83
2022/10/19 12:57:25;;;;;;;6.70;5.93;;;;;;;17.67;73.13;99779.25;5129481;27;41864;-89
2022/10/19 13:00:03;;;;;;;8.43;7.57;;;;;;;17.58;72.82;99778.06;5130553;27;42835;-83
2022/10/19 13:02:34;;;;;;;8.73;7.83;;;;;;;17.56;72.74;99781.84;5133605;27;41950;-83
2022/10/19 13:05:04;;;;;;;7.00;6.37;;;;;;;17.49;72.54;99762.72;5130942;27;40045;-84
2022/10/19 13:07:35;;;;;;;7.80;6.67;;;;;;;17.46;72.71;99749.53;5132626;27;41672;-83
2022/10/19 13:10:08;;;;;;;9.43;6.00;;;;;;;17.59;72.82;99766.38;5090079;28;43015;-84
2022/10/19 13:12:46;;;;;;;8.00;6.90;;;;;;;17.58;72.76;99770.03;5091367;28;41614;-86
2022/10/19 13:15:57;;;;;;;12.93;9.33;;;;;;;17.55;72.47;99759.56;5121592;27;40004;-83
2022/10/19 13:19:04;;;;;;;14.20;9.77;;;;;;;17.51;72.46;99759.91;5087534;28;41573;-80
2022/10/19 13:21:51;;;;;;;9.90;8.27;;;;;;;17.42;72.05;99766.84;5102653;28;41804;-81
2022/10/19 13:24:29;;;;;;;9.03;8.10;;;;;;;17.37;71.99;99763.66;5095249;27;41633;-82
2022/10/19 13:27:24;;;;;;;9.17;7.23;;;;;;;17.28;72.30;99753.66;5114808;27;38741;-83
2022/10/19 13:29:53;;;;;;;9.03;7.73;;;;;;;17.43;72.74;99752.44;5110738;27;41810;-79
2022/10/19 13:32:43;;;;;;;7.10;6.40;;;;;;;17.48;72.70;99750.28;5109587;28;42006;-78
2022/10/19 13:35:31;;;;;;;8.30;7.20;;;;;;;17.36;72.70;99731.63;5102365;27;42019;-81
2022/10/19 13:38:11;;;;;;;8.07;7.20;;;;;;;17.46;72.84;99744.19;5118452;27;40666;-82
2022/10/19 13:40:55;;;;;;;8.80;7.90;;;;;;;17.44;72.56;99745.28;5112108;27;41469;-82
2022/10/19 13:43:26;;;;;;;9.07;7.50;;;;;;;17.26;72.81;99720.78;5108642;28;42399;-82
2022/10/19 13:46:02;;;;;;;6.87;6.17;;;;;;;17.36;72.87;99718.25;5091208;28;43768;-86
2022/10/19 13:48:49;;;;;;;6.90;6.20;;;;;;;17.37;73.13;99714.59;5111124;28;39103;-81
2022/10/19 13:51:27;;;;;;;7.63;6.33;;;;;;;17.53;72.54;99726.69;5130447;27;42695;-80
2022/10/19 13:54:07;;;;;;;8.63;7.73;;;;;;;17.51;71.70;99735.81;5131510;27;42869;-77
2022/10/19 13:56:56;;;;;;;8.00;7.27;;;;;;;17.51;71.91;99736.66;5132054;27;42258;-84
2022/10/19 13:59:48;;;;;;;9.97;7.80;;;;;;;17.40;71.50;99717.91;5131078;27;39824;-82
2022/10/19 14:03:04;;;;;;;7.20;6.50;;;;;;;17.37;71.26;99711.91;5128406;27;42516;-84
2022/10/19 14:05:58;;;;;;;6.57;5.67;;;;;;;17.54;71.59;99724.88;5083735;28;43882;-79
2022/10/19 14:08:54;;;;;;;8.07;6.47;;;;;;;17.52;71.52;99706.25;5103446;28;43014;-88
2022/10/19 14:11:26;;;;;;;6.67;6.07;;;;;;;17.67;70.94;99719.44;5114460;27;38737;-84
2022/10/19 14:14:25;;;;;;;6.83;6.13;;;;;;;17.74;70.37;99736.75;5129170;27;42715;-87
2022/10/19 14:16:55;;;;;;;6.77;6.07;;;;;;;17.75;70.36;99722.38;5073406;28;42591;-85
2022/10/19 14:19:30;;;;;;;7.37;5.07;;;;;;;17.87;70.57;99721.41;5101807;27;41185;-84
2022/10/19 14:22:01;;;;;;;9.40;7.20;;;;;;;17.71;70.03;99680.72;5118481;27;38964;-82
2022/10/19 14:24:32;;;;;;;6.47;5.80;;;;;;;17.93;69.38;99715.56;5118136;27;40851;-84
2022/10/19 14:27:01;;;;;;;7.10;6.40;;;;;;;17.81;69.04;99684.38;5118073;27;42850;-84
2022/10/19 14:29:31;;;;;;;6.27;4.90;;;;;;;17.82;69.26;99667.31;5134606;27;42769;-85
2022/10/19 14:31:59;;;;;;;6.47;5.87;;;;;;;18.06;69.13;99684.13;5117997;27;39081;-83
2022/10/19 14:34:29;;;;;;;7.20;6.10;;;;;;;18.08;69.05;99687.53;5117205;27;41556;-85
2022/10/19 14:36:56;;;;;;;6.67;5.83;;;;;;;18.11;67.76;99686.44;5117646;27;41832;-85
2022/10/19 14:39:30;;;;;;;7.87;5.27;;;;;;;18.25;68.76;99707.63;5117695;27;41421;-86
2022/10/19 14:42:03;;;;;;;6.53;5.60;;;;;;;18.22;68.60;99694.47;5132660;27;39938;-84
2022/10/19 14:44:37;;;;;;;6.60;6.00;;;;;;;18.02;68.67;99666.59;5116695;27;42696;-81
2022/10/19 14:47:15;;;;;;;7.73;5.97;;;;;;;18.15;68.57;99683.41;5131576;27;43943;-82
2022/10/19 14:49:45;;;;;;;6.73;5.63;;;;;;;18.13;68.78;99677.31;5116795;27;41428;-85
2022/10/19 14:52:15;;;;;;;7.10;6.40;;;;;;;18.12;68.54;99678.28;5117687;27;39188;-85
2022/10/19 14:54:48;;;;;;;6.60;6.00;;;;;;;18.08;68.87;99668.75;5117236;27;42245;-85
2022/10/19 14:57:20;;;;;;;8.60;6.87;;;;;;;18.20;68.82;99673.13;5119704;27;42698;-84
2022/10/19 14:59:50;;;;;;;8.23;6.60;;;;;;;18.23;68.37;99674.72;5107312;28;42176;-90
2022/10/19 15:02:22;;;;;;;6.77;6.03;;;;;;;18.24;68.29;99660.34;5097072;28;39090;-87
2022/10/19 15:04:53;;;;;;;6.77;6.00;;;;;;;18.37;68.29;99669.09;5118283;27;41786;-85
2022/10/19 15:07:24;;;;;;;8.73;5.30;;;;;;;18.45;68.38;99672.00;5117013;27;42126;-83
2022/10/19 15:09:56;;;;;;;5.57;4.97;;;;;;;18.47;68.40;99661.13;5116620;27;41245;-89
2022/10/19 15:12:28;;;;;;;6.03;5.10;;;;;;;18.37;68.36;99639.59;5137197;27;39228;-85
2022/10/19 15:14:57;;;;;;;7.37;5.23;;;;;;;18.23;68.79;99629.13;5122747;27;42680;-82
2022/10/19 15:17:28;;;;;;;4.60;4.10;;;;;;;18.14;68.74;99629.91;5128279;27;41618;-80
2022/10/19 15:19:59;;;;;;;5.20;4.70;;;;;;;18.14;69.20;99649.53;5094907;27;41354;-81
2022/10/19 15:22:39;;;;;;;6.17;5.57;;;;;;;18.00;68.66;99654.28;5094578;28;40201;-82
2022/10/19 15:25:24;;;;;;;6.43;4.87;;;;;;;17.79;69.37;99641.63;5088947;28;39507;-83
2022/10/19 15:27:53;;;;;;;5.37;4.43;;;;;;;17.73;69.57;99638.56;5112650;28;42005;-82
2022/10/19 15:30:27;;;;;;;5.03;4.20;;;;;;;17.68;69.79;99646.97;5097319;28;41019;-84
2022/10/19 15:33:13;;;;;;;5.17;4.67;;;;;;;17.57;70.03;99637.06;5109784;28;40973;-82
2022/10/19 15:35:44;;;;;;;5.33;4.83;;;;;;;17.43;70.23;99637.31;5078002;28;40758;-84
2022/10/19 15:38:20;;;;;;;4.73;4.33;;;;;;;17.33;70.66;99625.59;5094899;28;41718;-83
2022/10/19 15:40:48;;;;;;;5.17;4.67;;;;;;;17.33;70.98;99636.31;5094085;28;42280;-83
2022/10/19 15:43:37;;;;;;;5.20;4.30;;;;;;;17.15;71.36;99617.19;5110690;28;40218;-86
2022/10/19 15:46:09;;;;;;;5.37;4.27;;;;;;;17.10;71.45;99635.44;5089548;28;40422;-87
2022/10/19 15:48:45;;;;;;;4.93;4.40;;;;;;;17.00;71.36;99639.78;5111867;28;43052;-85
2022/10/19 15:51:35;;;;;;;5.47;4.73;;;;;;;16.87;71.97;99631.84;5092227;28;43722;-85
2022/10/19 15:54:17;;;;;;;;;;;;;;;;;;;;;
2022/10/19 15:57:28;;;;;;;5.17;4.47;;;;;;;16.41;72.20;99596.13;5133850;27;40895;-85
2022/10/19 15:59:57;;;;;;;6.23;4.30;;;;;;;16.43;72.44;99627.13;5116496;27;41451;-82
2022/10/19 16:02:25;;;;;;;6.57;4.90;;;;;;;16.12;72.74;99583.09;5116457;27;42552;-80
2022/10/19 16:04:54;;;;;;;5.13;4.60;;;;;;;16.23;72.56;99626.88;5115697;27;40457;-83
2022/10/19 16:07:27;;;;;;;4.47;4.07;;;;;;;16.19;73.02;99630.75;5133532;27;41916;-84
2022/10/19 16:09:55;;;;;;;5.23;4.43;;;;;;;15.99;73.03;99614.34;5132917;27;44454;-81
2022/10/19 16:12:25;;;;;;;5.67;5.10;;;;;;;15.84;73.36;99612.78;5132656;27;41602;-83
2022/10/19 16:14:52;;;;;;;6.10;4.93;;;;;;;15.83;73.56;99624.41;5111689;27;39920;-82
2022/10/19 16:17:20;;;;;;;5.50;5.00;;;;;;;15.74;73.90;99625.94;5083036;28;42016;-81
2022/10/19 16:19:48;;;;;;;6.40;4.30;;;;;;;15.65;73.95;99623.09;5085684;28;43750;-80
2022/10/19 16:22:16;;;;;;;4.90;4.40;;;;;;;15.46;73.95;99605.66;5091104;28;40292;-87
2022/10/19 16:24:45;;;;;;;5.53;4.70;;;;;;;15.46;74.13;99626.16;5102808;27;39831;-80
2022/10/19 16:27:14;;;;;;;4.83;4.33;;;;;;;15.37;74.14;99619.66;5133184;27;42261;-80
2022/10/19 16:29:43;;;;;;;5.27;4.73;;;;;;;15.26;74.21;99614.22;5114047;27;43546;-83
2022/10/19 16:32:10;;;;;;;5.43;4.93;;;;;;;15.22;74.58;99623.38;5132434;27;42114;-89
2022/10/19 16:34:38;;;;;;;4.73;4.33;;;;;;;15.03;74.68;99601.63;5131984;27;39855;-86
2022/10/19 16:37:05;;;;;;;6.40;5.00;;;;;;;15.08;74.59;99621.66;5115729;27;40466;-83
2022/10/19 16:39:33;;;;;;;9.00;5.47;;;;;;;15.02;74.98;99610.56;5133203;27;43531;-84
2022/10/19 16:42:02;;;;;;;8.13;6.07;;;;;;;14.97;75.07;99607.34;5116144;27;42768;-84
2022/10/19 16:44:30;;;;;;;8.50;7.30;;;;;;;14.92;75.49;99598.84;5132703;27;39809;-77
2022/10/19 16:46:58;;;;;;;9.10;7.90;;;;;;;14.88;75.92;99594.66;5133145;27;42675;-82
2022/10/19 16:49:26;;;;;;;10.40;8.23;;;;;;;14.83;76.41;99592.31;5115111;27;43338;-84
